createdAt,value
2023-01-03T00:02:27.390Z,8.90
2023-01-03T00:04:59.197Z,8.90
2023-01-03T00:07:38.778Z,8.90
2023-01-03T00:10:11.765Z,8.90
2023-01-03T00:12:39.566Z,8.90
2023-01-03T00:15:14.636Z,8.90
2023-01-03T00:17:45.056Z,8.90
2023-01-03T00:20:15.412Z,8.90
2023-01-03T00:22:45.828Z,8.90
2023-01-03T00:25:16.283Z,8.90
2023-01-03T00:27:47.123Z,8.90
2023-01-03T00:30:25.143Z,8.80
2023-01-03T00:32:55.459Z,8.80
2023-01-03T00:35:25.788Z,8.80
2023-01-03T00:37:57.447Z,8.80
2023-01-03T00:40:27.912Z,8.80
2023-01-03T00:43:10.563Z,8.80
2023-01-03T00:45:43.805Z,8.70
2023-01-03T00:48:16.216Z,8.70
2023-01-03T00:50:48.076Z,8.70
2023-01-03T00:53:18.608Z,8.70
2023-01-03T00:55:49.107Z,8.70
2023-01-03T00:58:19.705Z,8.70
2023-01-03T01:00:53.124Z,8.70
2023-01-03T01:03:23.669Z,8.70
2023-01-03T01:05:55.886Z,8.70
2023-01-03T01:08:26.478Z,8.70
2023-01-03T01:11:05.683Z,8.60
2023-01-03T01:13:37.128Z,8.60
2023-01-03T01:16:15.389Z,8.60
2023-01-03T01:18:47.596Z,8.60
2023-01-03T01:21:20.931Z,8.60
2023-01-03T01:23:51.357Z,8.60
2023-01-03T01:26:25.209Z,8.60
2023-01-03T01:28:56.615Z,8.60
2023-01-03T01:31:32.833Z,8.60
2023-01-03T01:34:03.477Z,8.50
2023-01-03T01:36:37.741Z,8.60
2023-01-03T01:39:10.932Z,8.50
2023-01-03T01:41:53.952Z,8.50
2023-01-03T01:44:55.007Z,8.50
2023-01-03T01:47:36.600Z,8.50
2023-01-03T01:50:22.622Z,8.50
2023-01-03T01:53:02.809Z,8.50
2023-01-03T01:55:37.980Z,8.50
2023-01-03T01:58:09.687Z,8.50
2023-01-03T02:00:41.041Z,8.40
2023-01-03T02:03:15.366Z,8.40
2023-01-03T02:05:50.479Z,8.40
2023-01-03T02:08:21.113Z,8.40
2023-01-03T02:11:11.813Z,8.40
2023-01-03T02:13:52.726Z,8.40
2023-01-03T02:16:34.206Z,8.40
2023-01-03T02:19:29.746Z,8.40
2023-01-03T02:22:27.334Z,8.40
2023-01-03T02:25:41.067Z,8.40
2023-01-03T02:28:47.187Z,8.40
2023-01-03T02:31:25.603Z,8.40
2023-01-03T02:34:02.611Z,8.30
2023-01-03T02:36:46.485Z,8.30
2023-01-03T02:39:26.077Z,8.30
2023-01-03T02:42:13.920Z,8.20
2023-01-03T02:44:53.850Z,8.30
2023-01-03T02:47:29.248Z,8.20
2023-01-03T02:50:05.140Z,8.20
2023-01-03T02:52:35.992Z,8.20
2023-01-03T02:55:13.829Z,8.20
2023-01-03T02:57:50.024Z,8.20
2023-01-03T03:00:23.884Z,8.20
2023-01-03T03:03:01.727Z,8.20
2023-01-03T03:05:39.039Z,8.20
2023-01-03T03:08:12.928Z,8.20
2023-01-03T03:10:56.746Z,8.20
2023-01-03T03:13:33.563Z,8.10
2023-01-03T03:16:08.804Z,8.20
2023-01-03T03:18:50.716Z,8.20
2023-01-03T03:21:37.916Z,8.20
2023-01-03T03:24:32.706Z,8.20
2023-01-03T03:27:31.473Z,8.10
2023-01-03T03:30:02.323Z,8.20
2023-01-03T03:32:35.912Z,8.10
2023-01-03T03:35:14.881Z,8.20
2023-01-03T03:37:47.431Z,8.10
2023-01-03T03:40:44.961Z,8.20
2023-01-03T03:43:33.226Z,8.10
2023-01-03T03:46:08.986Z,8.10
2023-01-03T03:48:57.561Z,8.10
2023-01-03T03:51:34.465Z,8.10
2023-01-03T03:54:09.090Z,8.10
2023-01-03T03:56:41.167Z,8.10
2023-01-03T03:59:13.349Z,8.10
2023-01-03T04:01:46.171Z,8.10
2023-01-03T04:04:22.859Z,8.10
2023-01-03T04:06:56.495Z,8.10
2023-01-03T04:09:29.856Z,8.10
2023-01-03T04:12:00.185Z,8.10
2023-01-03T04:14:30.565Z,8.10
2023-01-03T04:17:00.915Z,8.20
2023-01-03T04:19:31.737Z,8.20
2023-01-03T04:22:04.881Z,8.20
2023-01-03T04:24:40.063Z,8.20
2023-01-03T04:27:10.422Z,8.20
2023-01-03T04:29:40.748Z,8.20
2023-01-03T04:32:16.188Z,8.20
2023-01-03T04:34:46.613Z,8.10
2023-01-03T04:37:19.550Z,8.20
2023-01-03T04:39:50.046Z,8.10
2023-01-03T04:42:32.707Z,8.20
2023-01-03T04:45:03.784Z,8.10
2023-01-03T04:47:34.096Z,8.10
2023-01-03T04:50:04.477Z,8.10
2023-01-03T04:52:37.378Z,8.10
2023-01-03T04:55:08.464Z,8.10
2023-01-03T04:57:39.813Z,8.10
2023-01-03T05:00:12.014Z,8.10
2023-01-03T05:02:42.824Z,8.10
2023-01-03T05:05:13.933Z,8.00
2023-01-03T05:07:46.947Z,8.00
2023-01-03T05:10:17.325Z,8.10
2023-01-03T05:13:00.095Z,8.10
2023-01-03T05:15:30.884Z,8.10
2023-01-03T05:18:01.471Z,8.10
2023-01-03T05:20:53.862Z,8.00
2023-01-03T05:23:42.230Z,8.10
2023-01-03T05:26:14.470Z,8.10
2023-01-03T05:28:46.151Z,8.00
2023-01-03T05:31:16.548Z,8.00
2023-01-03T05:33:46.971Z,8.00
2023-01-03T05:36:18.968Z,8.00
2023-01-03T05:38:52.383Z,8.00
2023-01-03T05:41:43.031Z,8.00
2023-01-03T05:44:13.311Z,8.00
2023-01-03T05:46:45.224Z,8.00
2023-01-03T05:49:15.696Z,8.00
2023-01-03T05:51:46.080Z,8.00
2023-01-03T05:54:20.287Z,8.00
2023-01-03T05:56:51.498Z,8.00
2023-01-03T05:59:22.953Z,8.00
2023-01-03T06:01:53.896Z,8.00
2023-01-03T06:04:24.471Z,8.00
2023-01-03T06:06:54.972Z,8.10
2023-01-03T06:09:27.874Z,8.10
2023-01-03T06:12:01.989Z,8.10
2023-01-03T06:14:32.302Z,8.10
2023-01-03T06:17:15.046Z,8.10
2023-01-03T06:19:46.731Z,8.10
2023-01-03T06:22:17.105Z,8.10
2023-01-03T06:24:49.990Z,8.10
2023-01-03T06:27:20.443Z,8.20
2023-01-03T06:29:50.814Z,8.10
2023-01-03T06:32:21.189Z,8.20
2023-01-03T06:34:54.555Z,8.20
2023-01-03T06:37:24.963Z,8.20
2023-01-03T06:40:01.173Z,8.20
2023-01-03T06:42:45.425Z,8.20
2023-01-03T06:45:29.760Z,8.20
2023-01-03T06:48:12.896Z,8.20
2023-01-03T06:50:56.472Z,8.20
2023-01-03T06:53:33.284Z,8.20
2023-01-03T06:56:07.123Z,8.20
2023-01-03T06:58:38.490Z,8.20
2023-01-03T07:01:10.355Z,8.20
2023-01-03T07:03:45.466Z,8.10
2023-01-03T07:06:15.794Z,8.20
2023-01-03T07:08:48.700Z,8.10
2023-01-03T07:11:23.820Z,8.10
2023-01-03T07:14:00.394Z,8.10
2023-01-03T07:16:32.864Z,8.20
2023-01-03T07:19:04.172Z,8.20
2023-01-03T07:21:36.261Z,8.20
2023-01-03T07:24:08.991Z,8.20
2023-01-03T07:26:42.354Z,8.20
2023-01-03T07:29:13.959Z,8.30
2023-01-03T07:31:45.128Z,8.30
2023-01-03T07:34:15.636Z,8.30
2023-01-03T07:36:46.233Z,8.30
2023-01-03T07:39:19.542Z,8.30
2023-01-03T07:42:04.795Z,8.30
2023-01-03T07:44:38.754Z,8.40
2023-01-03T07:47:09.142Z,8.40
2023-01-03T07:49:41.562Z,8.40
2023-01-03T07:52:11.855Z,8.40
2023-01-03T07:54:42.186Z,8.40
2023-01-03T07:57:15.250Z,8.50
2023-01-03T07:59:45.541Z,8.50
2023-01-03T08:02:16.119Z,8.50
2023-01-03T08:04:54.093Z,8.50
2023-01-03T08:07:24.471Z,8.50
2023-01-03T08:10:07.174Z,8.50
2023-01-03T08:12:52.536Z,8.50
2023-01-03T08:15:22.888Z,8.60
2023-01-03T08:17:53.230Z,8.60
2023-01-03T08:20:23.743Z,8.60
2023-01-03T08:22:55.977Z,8.60
2023-01-03T08:25:29.364Z,8.60
2023-01-03T08:28:04.107Z,8.70
2023-01-03T08:30:34.598Z,8.70
2023-01-03T08:33:06.616Z,8.70
2023-01-03T08:35:39.969Z,8.70
2023-01-03T08:38:13.329Z,8.70
2023-01-03T08:40:44.906Z,8.70
2023-01-03T08:43:22.704Z,8.70
2023-01-03T08:45:53.121Z,8.70
2023-01-03T08:48:25.494Z,8.70
2023-01-03T08:50:57.765Z,8.80
2023-01-03T08:53:29.055Z,8.80
2023-01-03T08:56:03.632Z,8.80
2023-01-03T08:58:37.087Z,8.80
2023-01-03T09:01:09.940Z,8.80
2023-01-03T09:03:40.607Z,8.80
2023-01-03T09:06:11.351Z,8.80
2023-01-03T09:08:41.735Z,8.90
2023-01-03T09:11:13.247Z,8.90
2023-01-03T09:13:46.675Z,8.90
2023-01-03T09:16:17.549Z,8.90
2023-01-03T09:18:47.962Z,9.00
2023-01-03T09:21:18.384Z,8.90
2023-01-03T09:23:48.885Z,8.90
2023-01-03T09:26:19.279Z,9.00
2023-01-03T09:28:58.325Z,9.00
2023-01-03T09:31:30.119Z,9.00
2023-01-03T09:34:00.762Z,9.00
2023-01-03T09:36:31.221Z,9.10
2023-01-03T09:39:04.873Z,9.10
2023-01-03T09:41:36.294Z,9.10
2023-01-03T09:44:12.049Z,9.10
2023-01-03T09:46:42.582Z,9.10
2023-01-03T09:49:17.069Z,9.10
2023-01-03T09:52:06.843Z,9.10
2023-01-03T09:54:55.548Z,9.10
2023-01-03T09:57:41.275Z,9.10
2023-01-03T10:00:33.543Z,9.10
2023-01-03T10:03:44.821Z,9.10
2023-01-03T10:06:28.492Z,9.10
2023-01-03T10:09:18.211Z,9.10
2023-01-03T10:11:59.980Z,9.20
2023-01-03T10:14:42.177Z,9.20
2023-01-03T10:17:27.103Z,9.20
2023-01-03T10:20:10.059Z,9.10
2023-01-03T10:22:43.784Z,9.10
2023-01-03T10:25:17.106Z,9.10
2023-01-03T10:27:49.705Z,9.20
2023-01-03T10:30:30.385Z,9.10
2023-01-03T10:33:25.977Z,9.20
2023-01-03T10:35:57.284Z,9.20
2023-01-03T10:38:28.577Z,9.20
2023-01-03T10:41:01.375Z,9.20
2023-01-03T10:43:34.090Z,9.20
2023-01-03T10:46:06.792Z,9.20
2023-01-03T10:49:25.501Z,9.20
2023-01-03T10:51:42.846Z,9.20
2023-01-03T10:54:26.285Z,9.20
2023-01-03T10:56:57.182Z,9.20
2023-01-03T10:59:31.774Z,9.20
2023-01-03T11:02:07.459Z,9.20
2023-01-03T11:04:40.526Z,9.20
2023-01-03T11:07:17.607Z,9.20
2023-01-03T11:09:52.877Z,9.20
2023-01-03T11:12:34.065Z,9.30
2023-01-03T11:15:07.167Z,9.30
2023-01-03T11:17:37.551Z,9.30
2023-01-03T11:20:21.157Z,9.30
2023-01-03T11:22:59.820Z,9.40
2023-01-03T11:25:44.224Z,9.40
2023-01-03T11:28:41.936Z,9.40
2023-01-03T11:31:34.289Z,9.40
2023-01-03T11:34:18.073Z,9.40
2023-01-03T11:36:55.257Z,9.40
2023-01-03T11:39:44.998Z,9.50
2023-01-03T11:42:36.636Z,9.50
2023-01-03T11:45:33.934Z,9.50
2023-01-03T11:48:38.431Z,9.50
2023-01-03T11:51:17.403Z,9.50
2023-01-03T11:54:03.150Z,9.50
2023-01-03T11:56:39.795Z,9.40
2023-01-03T11:59:38.600Z,9.40
2023-01-03T12:02:40.167Z,9.50
2023-01-03T12:05:38.822Z,9.50
2023-01-03T12:08:22.737Z,9.60
2023-01-03T12:11:04.254Z,9.60
2023-01-03T12:13:41.268Z,9.70
2023-01-03T12:16:15.888Z,9.70
2023-01-03T12:18:56.153Z,9.80
2023-01-03T12:21:36.189Z,9.80
2023-01-03T12:24:14.221Z,9.80
2023-01-03T12:26:53.979Z,9.70
2023-01-03T12:29:27.963Z,9.80
2023-01-03T12:32:05.760Z,9.80
2023-01-03T12:34:42.347Z,9.90
2023-01-03T12:37:17.678Z,9.80
2023-01-03T12:39:55.568Z,9.90
2023-01-03T12:42:36.636Z,9.90
2023-01-03T12:45:40.092Z,9.90
2023-01-03T12:48:20.766Z,9.90
2023-01-03T12:50:53.187Z,9.90
2023-01-03T12:53:34.652Z,9.90
2023-01-03T12:56:29.222Z,9.90
2023-01-03T12:59:13.897Z,9.90
2023-01-03T13:01:48.193Z,10.00
2023-01-03T13:04:23.925Z,10.00
2023-01-03T13:06:59.857Z,10.00
2023-01-03T13:09:33.144Z,10.00
2023-01-03T13:12:11.626Z,10.00
2023-01-03T13:15:00.419Z,10.00
2023-01-03T13:17:35.774Z,10.00
2023-01-03T13:20:31.062Z,9.90
2023-01-03T13:23:02.786Z,9.90
2023-01-03T13:26:17.463Z,9.90
2023-01-03T13:28:47.943Z,9.90
2023-01-03T13:31:42.286Z,10.00
2023-01-03T13:34:37.323Z,9.90
2023-01-03T13:37:26.305Z,10.00
2023-01-03T13:40:59.833Z,10.00
2023-01-03T13:43:23.530Z,10.00
2023-01-03T13:46:01.972Z,9.90
2023-01-03T13:48:43.725Z,10.00
2023-01-03T13:51:52.122Z,10.00
2023-01-03T13:54:54.802Z,10.00
2023-01-03T13:57:35.556Z,10.00
2023-01-03T14:00:16.938Z,9.90
2023-01-03T14:03:25.158Z,10.00
2023-01-03T14:06:10.215Z,10.00
2023-01-03T14:09:12.664Z,10.00
2023-01-03T14:12:10.924Z,10.00
2023-01-03T14:14:47.804Z,10.00
2023-01-03T14:17:22.530Z,10.00
2023-01-03T14:19:56.211Z,10.00
2023-01-03T14:22:29.430Z,10.00
2023-01-03T14:25:01.800Z,10.00
2023-01-03T14:27:40.664Z,10.00
2023-01-03T14:30:24.395Z,10.00
2023-01-03T14:32:56.836Z,10.00
2023-01-03T14:35:39.101Z,10.00
2023-01-03T14:38:24.191Z,9.90
2023-01-03T14:40:55.999Z,9.90
2023-01-03T14:43:29.493Z,9.90
2023-01-03T14:46:04.717Z,9.90
2023-01-03T14:48:35.647Z,9.90
2023-01-03T14:51:07.638Z,9.90
2023-01-03T14:53:48.754Z,9.90
2023-01-03T14:56:21.352Z,9.90
2023-01-03T14:58:54.445Z,9.90
2023-01-03T15:01:27.261Z,9.90
2023-01-03T15:03:59.546Z,9.90
2023-01-03T15:06:31.421Z,9.90
2023-01-03T15:09:03.665Z,9.90
2023-01-03T15:11:56.627Z,9.90
2023-01-03T15:14:31.640Z,9.90
2023-01-03T15:17:09.793Z,9.90
2023-01-03T15:19:43.440Z,9.80
2023-01-03T15:22:19.181Z,9.80
2023-01-03T15:24:52.904Z,9.80
2023-01-03T15:27:43.887Z,9.80
2023-01-03T15:30:25.105Z,9.80
2023-01-03T15:33:02.168Z,9.80
2023-01-03T15:35:39.733Z,9.80
2023-01-03T15:38:20.104Z,9.80
2023-01-03T15:40:53.095Z,9.80
2023-01-03T15:43:24.681Z,9.70
2023-01-03T15:46:05.521Z,9.70
2023-01-03T15:48:40.470Z,9.80
2023-01-03T15:51:11.214Z,9.70
2023-01-03T15:53:44.971Z,9.70
2023-01-03T15:56:21.590Z,9.70
2023-01-03T15:58:54.751Z,9.70
2023-01-03T16:01:28.575Z,9.70
2023-01-03T16:03:59.241Z,9.70
2023-01-03T16:06:29.741Z,9.70
2023-01-03T16:09:00.202Z,9.70
2023-01-03T16:11:34.396Z,9.60
2023-01-03T16:14:08.001Z,9.60
2023-01-03T16:16:44.674Z,9.60
2023-01-03T16:19:22.459Z,9.60
2023-01-03T16:22:24.643Z,9.60
2023-01-03T16:24:47.592Z,9.60
2023-01-03T16:27:23.463Z,9.60
2023-01-03T16:29:55.239Z,9.70
2023-01-03T16:32:30.552Z,9.70
2023-01-03T16:35:03.535Z,9.70
2023-01-03T16:37:34.504Z,9.60
2023-01-03T16:40:04.928Z,9.70
2023-01-03T16:42:35.231Z,9.60
2023-01-03T16:45:05.575Z,9.70
2023-01-03T16:47:39.964Z,9.60
2023-01-03T16:50:17.131Z,9.70
2023-01-03T16:52:50.242Z,9.70
2023-01-03T16:55:29.917Z,9.70
2023-01-03T16:58:05.737Z,9.70
2023-01-03T17:00:42.844Z,9.70
2023-01-03T17:03:15.969Z,9.70
2023-01-03T17:05:50.480Z,9.70
2023-01-03T17:08:25.786Z,9.70
2023-01-03T17:10:58.434Z,9.70
2023-01-03T17:13:32.865Z,9.70
2023-01-03T17:16:04.764Z,9.70
2023-01-03T17:18:44.045Z,9.70
2023-01-03T17:21:27.396Z,9.70
2023-01-03T17:24:02.206Z,9.70
2023-01-03T17:26:35.228Z,9.70
2023-01-03T17:29:08.880Z,9.70
2023-01-03T17:31:39.264Z,9.70
2023-01-03T17:34:25.497Z,9.70
2023-01-03T17:36:56.751Z,9.70
2023-01-03T17:39:28.272Z,9.70
2023-01-03T17:42:11.666Z,9.80
2023-01-03T17:44:42.743Z,9.70
2023-01-03T17:47:37.127Z,9.80
2023-01-03T17:50:12.545Z,9.70
2023-01-03T17:52:43.399Z,9.80
2023-01-03T17:55:25.283Z,9.80
2023-01-03T17:57:56.422Z,9.80
2023-01-03T18:00:29.323Z,9.80
2023-01-03T18:03:00.969Z,9.80
2023-01-03T18:05:34.232Z,9.80
2023-01-03T18:08:05.887Z,9.80
2023-01-03T18:10:45.633Z,9.80
2023-01-03T18:13:26.048Z,9.80
2023-01-03T18:15:57.678Z,9.80
2023-01-03T18:18:29.745Z,9.80
2023-01-03T18:21:03.031Z,9.80
2023-01-03T18:23:36.051Z,9.80
2023-01-03T18:26:08.327Z,9.90
2023-01-03T18:28:41.403Z,9.80
2023-01-03T18:31:16.439Z,9.90
2023-01-03T18:33:46.903Z,9.90
2023-01-03T18:36:31.422Z,9.90
2023-01-03T18:39:06.817Z,9.90
2023-01-03T18:41:37.693Z,9.90
2023-01-03T18:44:08.378Z,9.90
2023-01-03T18:46:39.229Z,9.90
2023-01-03T18:49:13.214Z,9.90
2023-01-03T18:51:46.395Z,9.90
2023-01-03T18:54:21.265Z,9.90
2023-01-03T18:56:51.744Z,9.90
2023-01-03T18:59:25.386Z,9.90
2023-01-03T19:01:59.044Z,9.90
2023-01-03T19:04:29.560Z,9.90
2023-01-03T19:07:02.491Z,9.90
2023-01-03T19:09:36.252Z,9.90
2023-01-03T19:12:06.756Z,9.90
2023-01-03T19:14:46.408Z,9.90
2023-01-03T19:17:18.535Z,9.90
2023-01-03T19:19:49.009Z,9.90
2023-01-03T19:22:28.623Z,9.90
2023-01-03T19:25:01.370Z,9.90
2023-01-03T19:27:39.910Z,10.00
2023-01-03T19:30:18.993Z,9.90
2023-01-03T19:32:56.162Z,9.90
2023-01-03T19:35:27.003Z,9.90
2023-01-03T19:37:59.964Z,9.90
2023-01-03T19:40:36.560Z,9.90
2023-01-03T19:43:07.681Z,9.90
2023-01-03T19:45:39.977Z,9.90
2023-01-03T19:48:20.095Z,9.90
2023-01-03T19:50:53.164Z,9.90
2023-01-03T19:53:28.434Z,9.90
2023-01-03T19:55:59.153Z,9.90
2023-01-03T19:58:32.919Z,9.90
2023-01-03T20:01:07.093Z,9.90
2023-01-03T20:03:42.983Z,9.90
2023-01-03T20:06:15.847Z,9.90
2023-01-03T20:08:49.048Z,9.90
2023-01-03T20:11:21.948Z,9.90
2023-01-03T20:13:53.084Z,9.90
2023-01-03T20:16:24.186Z,9.90
2023-01-03T20:18:55.153Z,9.90
2023-01-03T20:21:30.480Z,9.90
2023-01-03T20:24:06.962Z,9.90
2023-01-03T20:26:39.630Z,9.90
2023-01-03T20:29:13.281Z,9.90
2023-01-03T20:31:43.946Z,9.90
2023-01-03T20:34:14.817Z,9.90
2023-01-03T20:36:49.350Z,9.90
2023-01-03T20:39:27.460Z,9.90
2023-01-03T20:42:04.001Z,9.90
2023-01-03T20:44:34.568Z,9.90
2023-01-03T20:47:05.141Z,10.00
2023-01-03T20:49:37.631Z,10.00
2023-01-03T20:52:08.209Z,10.00
2023-01-03T20:54:41.336Z,9.90
2023-01-03T20:57:17.890Z,10.00
2023-01-03T20:59:48.262Z,10.00
2023-01-03T21:02:18.699Z,10.00
2023-01-03T21:04:50.932Z,9.90
2023-01-03T21:07:49.935Z,10.00
2023-01-03T21:10:28.712Z,10.00
2023-01-03T21:12:59.267Z,10.00
2023-01-03T21:15:29.740Z,10.00
2023-01-03T21:18:00.237Z,10.00
2023-01-03T21:20:35.135Z,10.00
2023-01-03T21:23:05.574Z,10.00
2023-01-03T21:25:41.943Z,10.00
2023-01-03T21:28:13.018Z,10.00
2023-01-03T21:30:44.025Z,10.00
2023-01-03T21:33:19.980Z,10.00
2023-01-03T21:35:52.773Z,10.00
2023-01-03T21:38:25.260Z,10.00
2023-01-03T21:40:58.259Z,10.00
2023-01-03T21:43:28.709Z,10.00
2023-01-03T21:45:59.313Z,10.10
2023-01-03T21:48:29.821Z,10.10
2023-01-03T21:51:00.160Z,10.10
2023-01-03T21:53:30.480Z,10.10
2023-01-03T21:56:03.382Z,10.00
2023-01-03T21:58:33.708Z,10.10
2023-01-03T22:01:15.909Z,10.10
2023-01-03T22:03:58.743Z,10.10
2023-01-03T22:06:29.241Z,10.10
2023-01-03T22:09:01.230Z,10.10
2023-01-03T22:11:37.480Z,10.10
2023-01-03T22:14:07.898Z,10.10
2023-01-03T22:16:38.307Z,10.20
2023-01-03T22:19:08.795Z,10.20
2023-01-03T22:21:39.089Z,10.20
2023-01-03T22:24:10.455Z,10.20
2023-01-03T22:26:45.558Z,10.20
2023-01-03T22:29:18.889Z,10.20
2023-01-03T22:31:49.408Z,10.20
2023-01-03T22:34:19.855Z,10.20
2023-01-03T22:36:50.176Z,10.20
2023-01-03T22:39:22.233Z,10.20
2023-01-03T22:41:55.157Z,10.20
2023-01-03T22:44:25.532Z,10.20
2023-01-03T22:46:55.835Z,10.20
2023-01-03T22:49:26.300Z,10.20
2023-01-03T22:51:56.761Z,10.20
2023-01-03T22:54:27.392Z,10.20
2023-01-03T22:57:00.922Z,10.20
2023-01-03T22:59:31.426Z,10.20
2023-01-03T23:02:01.890Z,10.20
2023-01-03T23:04:32.778Z,10.10
2023-01-03T23:07:03.228Z,10.20
2023-01-03T23:09:33.730Z,10.20
2023-01-03T23:12:19.240Z,10.20
2023-01-03T23:14:49.616Z,10.20
2023-01-03T23:17:32.280Z,10.20
2023-01-03T23:20:02.736Z,10.20
2023-01-03T23:22:33.000Z,10.10
2023-01-03T23:25:03.512Z,10.10
2023-01-03T23:27:36.422Z,10.10
2023-01-03T23:30:07.540Z,10.10
2023-01-03T23:32:39.560Z,10.10
2023-01-03T23:35:11.197Z,10.20
2023-01-03T23:37:41.715Z,10.10
2023-01-03T23:40:14.537Z,10.10
2023-01-03T23:42:50.264Z,10.10
2023-01-03T23:45:20.850Z,10.10
2023-01-03T23:47:51.902Z,10.10
2023-01-03T23:50:22.391Z,10.10
2023-01-03T23:52:52.643Z,10.10
2023-01-03T23:55:26.163Z,10.10
2023-01-03T23:57:59.090Z,10.10
